This is the latest recevied weather packets stored in our database for station/object W0AKY-13. If no packets are shown the sender has not sent any weather packets the latest 10 day(s).
| Time | Temp. | Humidity | Pressure | Rain* | Wind** | Luminosity | Snow |
|---|---|---|---|---|---|---|---|
| 1777750560 | 18.89° C | 30% | 1020.9 hPa | 0 mm | - | 645 W/m² | - |
| 1777750256 | 18.33° C | 35% | 1021 hPa | 0 mm | - | 649 W/m² | - |
| 1777749952 | 18.33° C | 33% | 1021 hPa | 0 mm | - | 655 W/m² | - |
| 1777749650 | 18.89° C | 33% | 1021.2 hPa | 0 mm | - | 661 W/m² | - |
| 1777749347 | 17.78° C | 35% | 1021 hPa | 0 mm | - | 666 W/m² | - |
| 1777749044 | 17.78° C | 34% | 1021.1 hPa | 0 mm | - | 671 W/m² | - |
| 1777748742 | 17.78° C | 36% | 1021.6 hPa | 0 mm | - | 677 W/m² | - |
| 1777748438 | 17.78° C | 34% | 1021.4 hPa | 0 mm | - | 678 W/m² | - |
| 1777748132 | 17.22° C | 35% | 1021.4 hPa | 0 mm | - | 685 W/m² | - |
| 1777747830 | 17.22° C | 35% | 1021.4 hPa | 0 mm | - | 685 W/m² | - |
| 1777747525 | 17.22° C | 36% | 1021.6 hPa | 0 mm | - | 687 W/m² | - |
| 1777747222 | 16.67° C | 35% | 1021.6 hPa | 0 mm | - | 695 W/m² | - |
| 1777746918 | 16.67° C | 38% | 1021.7 hPa | 0 mm | - | 697 W/m² | - |
| 1777746614 | 16.67° C | 35% | 1021.7 hPa | 0 mm | - | 687 W/m² | - |
| 1777746309 | 17.22° C | 33% | 1022 hPa | 0 mm | - | 687 W/m² | - |
| 1777746005 | 16.67° C | 33% | 1021.9 hPa | 0 mm | - | 687 W/m² | - |
| 1777745704 | 16.67° C | 35% | 1022 hPa | 0 mm | - | 691 W/m² | - |
| 1777745402 | 16.67° C | 34% | 1022.1 hPa | 0 mm | - | 690 W/m² | - |
| 1777745099 | 16.67° C | 33% | 1021.9 hPa | 0 mm | - | 694 W/m² | - |
| 1777744795 | 16.11° C | 34% | 1022.1 hPa | 0 mm | - | 689 W/m² | - |
| 1777744489 | 16.11° C | 34% | 1022.1 hPa | 0 mm | - | 692 W/m² | - |
| 1777744186 | 16.67° C | 29% | 1022.3 hPa | 0 mm | - | 693 W/m² | - |
| 1777743883 | 16.11° C | 35% | 1022.2 hPa | 0 mm | - | 687 W/m² | - |
| 1777743580 | 15.56° C | 32% | 1022.1 hPa | 0 mm | - | 689 W/m² | - |
| 1777743276 | 15.56° C | 31% | 1022.2 hPa | 0 mm | - | 689 W/m² | - |
* Rain latest hour (hover to see other rain measurements)
** Current wind speed in m/s (hover to see current wind gust speed)